| time (UTC) | temp F | wind direction | speed MPH | gust MPH | rain 1hr in | rain 24hr in | rain mn in | humidity % | barometer mb |
| 20260906163503 | 77 | 158 | 2.0 | 3.0 | 0.00 | 0.00 | 0.00 | 77 | 1016.5 |
| 20260906163003 | 76 | 45 | 4.0 | 7.0 | 0.00 | 0.00 | 0.00 | 77 | 1016.5 |
| 20260906162502 | 76 | 45 | 2.0 | 3.0 | 0.00 | 0.00 | 0.00 | 79 | 1016.5 |
| 20260906162003 | 77 | 45 | 3.0 | 4.0 | 0.00 | 0.00 | 0.00 | 75 | 1016.2 |
| 20260906161502 | 75 | 0 | 3.0 | 4.0 | 0.00 | 0.00 | 0.00 | 78 | 1016.2 |
| 20260906161003 | 75 | 23 | 3.0 | 4.0 | 0.00 | 0.00 | 0.00 | 79 | 1016.2 |
| 20260906160533 | 75 | 315 | 2.0 | 4.0 | 0.00 | 0.00 | 0.00 | 78 | 1016.2 |
| 20260906160002 | 75 | 23 | 2.0 | 2.0 | 0.00 | 0.00 | 0.00 | 78 | 1016.2 |
| 20260906155503 | 74 | 23 | 4.0 | 5.0 | 0.00 | 0.00 | 0.00 | 80 | 1016.5 |
| 20260906155003 | 76 | 23 | 5.0 | 7.0 | 0.00 | 0.00 | 0.00 | 76 | 1016.2 |
| 20260906154502 | 76 | 45 | 3.0 | 4.0 | 0.00 | 0.00 | 0.00 | 78 | 1016.2 |
| 20260906154003 | 74 | 23 | 3.0 | 4.0 | 0.00 | 0.00 | 0.00 | 79 | 1016.5 |
| 20260906153502 | 74 | 68 | 2.0 | 3.0 | 0.00 | 0.00 | 0.00 | 80 | 1016.2 |
| 20260906153003 | 75 | 23 | 1.0 | 2.0 | 0.00 | 0.00 | 0.00 | 80 | 1016.2 |
| 20260906152502 | 74 | 23 | 3.0 | 4.0 | 0.00 | 0.00 | 0.00 | 80 | 1016.5 |
| 20260906152003 | 74 | 45 | 6.0 | 7.0 | 0.00 | 0.00 | 0.00 | 79 | 1016.2 |
| 20260906151504 | 74 | 23 | 4.0 | 6.0 | 0.00 | 0.00 | 0.00 | 81 | 1016.2 |
| 20260906151002 | 74 | 0 | 2.0 | 2.0 | 0.00 | 0.00 | 0.00 | 79 | 1016.2 |
| 20260906150503 | 73 | 23 | 4.0 | 7.0 | 0.00 | 0.00 | 0.00 | 81 | 1016.2 |
| 20260906150033 | 73 | 113 | 6.0 | 8.0 | 0.00 | 0.00 | 0.00 | 81 | 1015.9 |
| 20260906145533 | 73 | 45 | 5.0 | 6.0 | 0.00 | 0.00 | 0.00 | 79 | 1016.2 |
| 20260906145003 | 72 | 68 | 4.0 | 5.0 | 0.00 | 0.00 | 0.00 | 82 | 1015.9 |
| 20260905222032 | 78 | 68 | 5.0 | 7.0 | 0.00 | 0.00 | 0.00 | 83 | 1012.1 |
| 20260905221503 | 78 | 68 | 5.0 | 7.0 | 0.00 | 0.00 | 0.00 | 83 | 1012.1 |
| 20260905221002 | 78 | 68 | 4.0 | 5.0 | 0.00 | 0.00 | 0.00 | 83 | 1011.8 |
| 20260905220503 | 79 | 68 | 2.0 | 2.0 | 0.00 | 0.00 | 0.00 | 82 | 1012.1 |
| 20260905220003 | 79 | 68 | 3.0 | 3.0 | 0.00 | 0.00 | 0.00 | 81 | 1012.1 |
| 20260905215502 | 79 | 45 | 4.0 | 5.0 | 0.00 | 0.00 | 0.00 | 81 | 1011.8 |
| 20260905215003 | 80 | 45 | 3.0 | 4.0 | 0.00 | 0.00 | 0.00 | 80 | 1011.8 |
| 20260905214502 | 80 | 23 | 4.0 | 5.0 | 0.00 | 0.00 | 0.00 | 79 | 1012.1 |
| 20260905214003 | 80 | 23 | 3.0 | 5.0 | 0.00 | 0.00 | 0.00 | 79 | 1012.1 |
| 20260905213502 | 80 | 23 | 4.0 | 6.0 | 0.00 | 0.00 | 0.00 | 78 | 1011.8 |
| 20260905213003 | 80 | 23 | 2.0 | 3.0 | 0.00 | 0.00 | 0.00 | 78 | 1011.8 |
| 20260905212502 | 80 | 68 | 3.0 | 4.0 | 0.00 | 0.00 | 0.00 | 80 | 1012.1 |
| 20260905212003 | 80 | 23 | 5.0 | 6.0 | 0.00 | 0.00 | 0.00 | 79 | 1011.8 |
| 20260905211503 | 80 | 0 | 4.0 | 5.0 | 0.00 | 0.00 | 0.00 | 79 | 1012.1 |
| 20260905211002 | 80 | 68 | 3.0 | 4.0 | 0.00 | 0.00 | 0.00 | 78 | 1012.1 |
| 20260905210533 | 80 | 23 | 4.0 | 5.0 | 0.00 | 0.00 | 0.00 | 79 | 1012.1 |
| 20260905210003 | 81 | 0 | 3.0 | 5.0 | 0.00 | 0.00 | 0.00 | 78 | 1012.1 |
| 20260905205503 | 81 | 45 | 3.0 | 3.0 | 0.00 | 0.00 | 0.00 | 76 | 1012.5 |
| 20260905205034 | 82 | 0 | 3.0 | 5.0 | 0.00 | 0.00 | 0.00 | 74 | 1012.5 |
| 20260905204503 | 82 | 315 | 1.0 | 2.0 | 0.00 | 0.00 | 0.00 | 75 | 1012.8 |
| 20260905204003 | 82 | 0 | 3.0 | 4.0 | 0.00 | 0.00 | 0.00 | 76 | 1012.5 |
| 20260905203503 | 82 | 0 | 4.0 | 5.0 | 0.00 | 0.00 | 0.00 | 75 | 1012.5 |
| 20260905203003 | 83 | 338 | 0.0 | 1.0 | 0.00 | 0.00 | 0.00 | 72 | 1012.5 |
| 20260905202533 | 82 | 23 | 2.0 | 3.0 | 0.00 | 0.00 | 0.00 | 75 | 1012.8 |
| 20260905202033 | 81 | 23 | 2.0 | 3.0 | 0.00 | 0.00 | 0.00 | 74 | 1012.5 |
| 20260905201533 | 82 | 293 | 1.0 | 2.0 | 0.00 | 0.00 | 0.00 | 77 | 1012.5 |
| 20260905201002 | 81 | 45 | 3.0 | 6.0 | 0.00 | 0.00 | 0.00 | 76 | 1012.5 |
| 20260905200503 | 81 | 23 | 3.0 | 3.0 | 0.00 | 0.00 | 0.00 | 74 | 1012.5 |
| 20260905200003 | 81 | 23 | 4.0 | 5.0 | 0.00 | 0.00 | 0.00 | 76 | 1012.5 |
| 20260905195503 | 81 | 0 | 4.0 | 5.0 | 0.00 | 0.00 | 0.00 | 75 | 1012.8 |
| 20260905195004 | 85 | 90 | 3.0 | 5.0 | 0.00 | 0.00 | 0.00 | 69 | 1012.8 |
| 20260905194532 | 83 | 0 | 1.0 | 2.0 | 0.00 | 0.00 | 0.00 | 73 | 1012.5 |
| 20260905194003 | 81 | 23 | 4.0 | 5.0 | 0.00 | 0.00 | 0.00 | 75 | 1012.8 |
| 20260905193502 | 80 | 45 | 2.0 | 2.0 | 0.00 | 0.00 | 0.00 | 78 | 1012.8 |
| 20260905193003 | 81 | 23 | 4.0 | 5.0 | 0.00 | 0.00 | 0.00 | 78 | 1012.5 |
| 20260905192503 | 81 | 23 | 4.0 | 6.0 | 0.00 | 0.00 | 0.00 | 76 | 1012.8 |
| 20260905192002 | 84 | 0 | 3.0 | 4.0 | 0.00 | 0.00 | 0.00 | 72 | 1012.8 |
| 20260905191503 | 82 | 293 | 0.0 | 1.0 | 0.00 | 0.00 | 0.00 | 74 | 1012.8 |
| 20260905191002 | 82 | 23 | 4.0 | 5.0 | 0.00 | 0.00 | 0.00 | 73 | 1012.8 |
| 20260905190503 | 81 | 338 | 5.0 | 6.0 | 0.00 | 0.00 | 0.00 | 76 | 1013.2 |
| 20260905190033 | 80 | 23 | 2.0 | 2.0 | 0.00 | 0.00 | 0.00 | 78 | 1012.8 |
| 20260905185502 | 80 | 23 | 5.0 | 6.0 | 0.00 | 0.00 | 0.00 | 80 | 1012.8 |
| 20260905185003 | 80 | 23 | 3.0 | 5.0 | 0.00 | 0.00 | 0.00 | 80 | 1013.2 |
| 20260905184503 | 80 | 23 | 2.0 | 2.0 | 0.00 | 0.00 | 0.00 | 78 | 1012.8 |
| 20260905184002 | 80 | 293 | 0.0 | 1.0 | 0.00 | 0.00 | 0.00 | 79 | 1012.8 |
| 20260905183503 | 79 | 158 | 2.0 | 2.0 | 0.00 | 0.00 | 0.00 | 82 | 1013.2 |
| 20260905183003 | 80 | 23 | 3.0 | 4.0 | 0.00 | 0.00 | 0.00 | 81 | 1013.2 |
| 20260905182533 | 81 | 315 | 0.0 | 1.0 | 0.00 | 0.00 | 0.00 | 81 | 1013.5 |
| 20260905182003 | 79 | 0 | 1.0 | 2.0 | 0.00 | 0.00 | 0.00 | 85 | 1013.2 |
| 20260905181533 | 78 | 315 | 1.0 | 2.0 | 0.00 | 0.00 | 0.00 | 87 | 1013.5 |
| 20260905181002 | 76 | 23 | 3.0 | 4.0 | 0.00 | 0.00 | 0.00 | 89 | 1013.5 |
| 20260905180503 | 76 | 23 | 3.0 | 4.0 | 0.00 | 0.00 | 0.00 | 89 | 1013.2 |
| 20260905180033 | 78 | 135 | 0.0 | 0.0 | 0.00 | 0.00 | 0.00 | 88 | 1013.5 |